Huvudsida
METAR-TAF:

METAR-TAF

Flygplatser :

Pratica Di Mare, Italien

latitud: 41-39N, longitud: 012-27E, höjd: 6 m

Aktuellt väderrapport

Denna rapport gjordes för 44 minuter sedan, klockan 10:55 UTC
Vind 9 kt från väst/sydväst
Temperatur 27°C
Fuktighet 74%
Tryck 1015 hPa
Sikt 10 km eller mer
Inga moln under 1 500 m eller inga cumulonimbus

METAR: LIRE 201055Z 24009KT CAVOK 27/22 Q1015 RMK SKC VIS MIN 9999 WIND THR13 24008KT WIND THR31 /////KT BLU

Tid: 13:39 (11:39 UTC)

Väderprognos

Denna rapport gjordes för 3 timmar och 39 minuter sedan, klockan 08:00 UTC
Prognos gäller från 20 kl. 09 UTC till 20 kl. 18 UTC
Vind 10 kt från sydväst
Sikt 10 km eller mer
Inga moln under 1 500 m eller inga cumulonimbus

TAF: LIRE 200800Z 2009/2018 23010KT CAVOK

Aktuella väderrapporter och prognoser från 4000 flygplatser (METAR- och TAF-rapporter).

De tillgängliga stationerna syns som gula och röda prickar på kartan.

För musen över prickarna för att se namnen på stationerna.

Klicka sedan för att få väderrapporter och prognoser.

För att ändra kartan: Klicka på de gröna knapparna med ett svart kors på för att zooma in; den gröna knappen med ett streck på för att zooma ut; eller på de gröna pilarna för angränsande kartor.


METAR-TAF: